Time;durP1;ratioP1;P1;durP2;ratioP2;P2;SDS_P1;SDS_P2;PMS_P1;PMS_P2;Temp;Humidity;BMP_temperature;BMP_pressure;BME280_temperature;BME280_humidity;BME280_pressure;Samples;Min_cycle;Max_cycle;Signal;HPM_P1;HPM_P2
2023/06/09 00:01:22;;;;;;;7.60;3.20;;;;;;;;;;4851700;29;20051;-79
2023/06/09 00:03:51;;;;;;;5.07;3.03;;;;;;;;;;4851058;29;20048;-81
2023/06/09 00:06:22;;;;;;;4.65;2.95;;;;;;;;;;4869088;29;20167;-79
2023/06/09 00:08:49;;;;;;;6.53;3.15;;;;;;;;;;4886408;29;20055;-80
2023/06/09 00:11:14;;;;;;;6.40;3.13;;;;;;;;;;4898791;28;20569;-79
2023/06/09 00:13:40;;;;;;;4.40;2.80;;;;;;;;;;4927360;28;20039;-79
2023/06/09 00:16:05;;;;;;;6.15;3.25;;;;;;;;;;4926866;29;20043;-80
2023/06/09 00:18:32;;;;;;;5.45;2.92;;;;;;;;;;4927260;29;20035;-79
2023/06/09 00:20:59;;;;;;;5.75;3.10;;;;;;;;;;4934438;28;20547;-78
2023/06/09 00:23:28;;;;;;;7.10;3.10;;;;;;;;;;4942797;28;20055;-78
2023/06/09 00:25:53;;;;;;;5.07;2.63;;;;;;;;;;4926508;28;20031;-79
2023/06/09 00:28:18;;;;;;;5.15;3.30;;;;;;;;;;4943325;28;20046;-79
2023/06/09 00:30:51;;;;;;;5.75;3.55;;;;;;;;;;4921145;28;20039;-78
2023/06/09 00:33:18;;;;;;;6.93;3.38;;;;;;;;;;4966482;28;20029;-79
2023/06/09 00:35:43;;;;;;;6.38;3.08;;;;;;;;;;5023867;28;20041;-80
2023/06/09 00:38:08;;;;;;;5.22;3.20;;;;;;;;;;5009225;28;20040;-79
2023/06/09 00:40:34;;;;;;;5.38;2.92;;;;;;;;;;5025193;28;20055;-78
2023/06/09 00:42:59;;;;;;;7.03;3.25;;;;;;;;;;5025183;28;20029;-78
2023/06/09 00:45:25;;;;;;;4.68;3.00;;;;;;;;;;5024787;28;20087;-79
2023/06/09 00:47:51;;;;;;;5.03;2.83;;;;;;;;;;5013535;28;20037;-79
2023/06/09 00:50:16;;;;;;;6.85;3.30;;;;;;;;;;5009905;28;20041;-80
2023/06/09 00:52:46;;;;;;;6.30;3.40;;;;;;;;;;5025095;28;20102;-79
2023/06/09 00:55:12;;;;;;;4.97;3.17;;;;;;;;;;5007792;28;20519;-81
2023/06/09 00:57:39;;;;;;;5.88;3.45;;;;;;;;;;5008788;28;20033;-79
2023/06/09 01:00:06;;;;;;;4.40;3.00;;;;;;;;;;5000459;28;20072;-78
2023/06/09 01:02:32;;;;;;;6.82;3.42;;;;;;;;;;5008626;28;20461;-78
2023/06/09 01:04:58;;;;;;;5.03;3.10;;;;;;;;;;5009231;28;20115;-79
2023/06/09 01:07:43;;;;;;;5.57;3.13;;;;;;;;;;5024571;28;20057;-79
2023/06/09 01:10:18;;;;;;;5.57;3.30;;;;;;;;;;5041331;28;20033;-79
2023/06/09 01:13:13;;;;;;;5.65;3.10;;;;;;;;;;5041193;28;21037;-79
2023/06/09 01:15:43;;;;;;;5.20;3.25;;;;;;;;;;5024669;28;20045;-78
2023/06/09 01:18:12;;;;;;;5.00;2.88;;;;;;;;;;5025579;28;20033;-78
2023/06/09 01:20:49;;;;;;;4.72;2.80;;;;;;;;;;4998686;28;20048;-79
2023/06/09 01:23:44;;;;;;;6.32;3.40;;;;;;;;;;5023201;28;20041;-79
2023/06/09 01:26:11;;;;;;;4.57;2.78;;;;;;;;;;5006959;28;20041;-78
2023/06/09 01:28:38;;;;;;;5.32;3.25;;;;;;;;;;5029359;28;20037;-78
2023/06/09 01:31:08;;;;;;;5.93;2.97;;;;;;;;;;5028308;28;20033;-78
2023/06/09 01:33:34;;;;;;;8.02;3.42;;;;;;;;;;5031442;28;20522;-79
2023/06/09 01:36:00;;;;;;;5.75;3.17;;;;;;;;;;5027777;28;20044;-79
2023/06/09 01:38:25;;;;;;;5.18;3.03;;;;;;;;;;5044568;28;20040;-79
2023/06/09 01:40:51;;;;;;;6.28;3.40;;;;;;;;;;5011043;28;20032;-78
2023/06/09 01:43:17;;;;;;;4.72;3.10;;;;;;;;;;4999515;28;20037;-80
2023/06/09 01:45:42;;;;;;;5.40;3.63;;;;;;;;;;5021571;28;20079;-80
2023/06/09 01:48:26;;;;;;;5.65;3.40;;;;;;;;;;5027965;28;20116;-79
2023/06/09 01:51:05;;;;;;;6.38;3.60;;;;;;;;;;5045462;28;20045;-79
2023/06/09 01:53:36;;;;;;;7.13;3.63;;;;;;;;;;5026631;28;20029;-78
2023/06/09 01:56:13;;;;;;;6.72;3.20;;;;;;;;;;5027811;28;20057;-78
2023/06/09 01:58:43;;;;;;;6.82;3.50;;;;;;;;;;5010011;28;20033;-79
2023/06/09 02:01:11;;;;;;;5.63;3.53;;;;;;;;;;5011095;28;20032;-77
2023/06/09 02:03:39;;;;;;;6.43;3.72;;;;;;;;;;5027756;28;20435;-78
2023/06/09 02:06:05;;;;;;;6.82;3.70;;;;;;;;;;5043551;28;20596;-79
2023/06/09 02:08:31;;;;;;;6.20;3.85;;;;;;;;;;5027864;28;20061;-78
2023/06/09 02:10:56;;;;;;;5.85;3.20;;;;;;;;;;5029211;28;22506;-79
2023/06/09 02:13:22;;;;;;;7.13;3.80;;;;;;;;;;5026582;28;20035;-79
2023/06/09 02:15:48;;;;;;;6.35;3.78;;;;;;;;;;5027124;28;20040;-78
2023/06/09 02:18:15;;;;;;;6.20;3.90;;;;;;;;;;5011262;28;20036;-78
2023/06/09 02:20:42;;;;;;;6.97;3.97;;;;;;;;;;5027084;28;20052;-78
2023/06/09 02:23:11;;;;;;;7.60;4.32;;;;;;;;;;5043871;28;20056;-78
2023/06/09 02:25:40;;;;;;;9.43;4.72;;;;;;;;;;5027470;28;20029;-78
2023/06/09 02:28:06;;;;;;;7.28;4.38;;;;;;;;;;5018402;28;20033;-78
2023/06/09 02:30:33;;;;;;;7.03;4.05;;;;;;;;;;5026607;28;20518;-79
2023/06/09 02:33:00;;;;;;;7.10;4.40;;;;;;;;;;5027183;28;20349;-78
2023/06/09 02:35:26;;;;;;;7.35;4.55;;;;;;;;;;4999224;28;20191;-78
2023/06/09 02:37:54;;;;;;;7.88;4.38;;;;;;;;;;5044240;28;20029;-79
2023/06/09 02:40:20;;;;;;;8.50;4.25;;;;;;;;;;5009816;28;20036;-79
2023/06/09 02:42:45;;;;;;;8.38;4.85;;;;;;;;;;5026934;28;20033;-79
2023/06/09 02:45:12;;;;;;;7.30;4.47;;;;;;;;;;5034497;28;20036;-78
2023/06/09 02:47:37;;;;;;;7.95;5.13;;;;;;;;;;5002530;28;20235;-80
2023/06/09 02:50:07;;;;;;;9.65;4.70;;;;;;;;;;5004419;28;20124;-78
2023/06/09 02:52:32;;;;;;;8.48;5.00;;;;;;;;;;5005929;28;20088;-78
2023/06/09 02:55:04;;;;;;;9.18;5.22;;;;;;;;;;5043414;28;20048;-78
2023/06/09 02:57:30;;;;;;;10.60;4.95;;;;;;;;;;5025248;28;20075;-78
2023/06/09 02:59:58;;;;;;;7.65;4.93;;;;;;;;;;5045097;28;20032;-78
2023/06/09 03:02:26;;;;;;;8.90;4.93;;;;;;;;;;5009047;28;20441;-78
2023/06/09 03:04:52;;;;;;;8.85;4.97;;;;;;;;;;5011600;28;20059;-77
2023/06/09 03:07:17;;;;;;;7.65;4.65;;;;;;;;;;5025247;28;20033;-80
2023/06/09 03:09:43;;;;;;;8.73;4.93;;;;;;;;;;5043355;28;20126;-79
2023/06/09 03:12:09;;;;;;;10.02;5.57;;;;;;;;;;5025771;28;20090;-78
2023/06/09 03:14:35;;;;;;;7.18;4.68;;;;;;;;;;5043327;28;20514;-77
2023/06/09 03:17:01;;;;;;;7.63;5.10;;;;;;;;;;5025920;28;20131;-77
2023/06/09 03:19:30;;;;;;;7.95;4.78;;;;;;;;;;5026862;28;20147;-77
2023/06/09 03:21:57;;;;;;;7.05;4.55;;;;;;;;;;5025232;28;20037;-78
2023/06/09 03:24:22;;;;;;;8.35;4.80;;;;;;;;;;5026322;28;20035;-78
2023/06/09 03:26:48;;;;;;;7.78;4.93;;;;;;;;;;5029922;28;20037;-79
2023/06/09 03:29:14;;;;;;;7.38;4.43;;;;;;;;;;5026422;28;20033;-78
2023/06/09 03:31:39;;;;;;;8.07;4.90;;;;;;;;;;4998789;28;20037;-78
2023/06/09 03:34:05;;;;;;;6.95;4.30;;;;;;;;;;5009992;28;20037;-78
2023/06/09 03:36:33;;;;;;;6.93;4.25;;;;;;;;;;5041418;28;20071;-77
2023/06/09 03:38:58;;;;;;;8.43;5.03;;;;;;;;;;5015988;28;20428;-77
2023/06/09 03:41:25;;;;;;;9.63;4.80;;;;;;;;;;5024501;28;20129;-77
2023/06/09 03:43:50;;;;;;;7.13;4.63;;;;;;;;;;5001551;28;20507;-77
2023/06/09 03:46:16;;;;;;;7.70;4.82;;;;;;;;;;5025243;28;20044;-78
2023/06/09 03:48:41;;;;;;;7.78;4.60;;;;;;;;;;5025606;28;20037;-78
2023/06/09 03:51:07;;;;;;;7.70;5.07;;;;;;;;;;5009580;28;20067;-77
2023/06/09 03:53:32;;;;;;;9.80;4.95;;;;;;;;;;5025245;28;20040;-77
2023/06/09 03:55:59;;;;;;;8.65;4.43;;;;;;;;;;5025372;28;20041;-78
2023/06/09 03:58:25;;;;;;;7.80;4.68;;;;;;;;;;5025779;28;20587;-79
2023/06/09 04:00:51;;;;;;;8.98;5.00;;;;;;;;;;5024764;28;20033;-78
2023/06/09 04:03:18;;;;;;;9.80;4.85;;;;;;;;;;5002520;28;20077;-77
2023/06/09 04:05:44;;;;;;;9.18;4.95;;;;;;;;;;5005136;28;20032;-78
2023/06/09 04:08:10;;;;;;;7.78;4.90;;;;;;;;;;5024882;28;20124;-77
2023/06/09 04:10:35;;;;;;;8.02;4.63;;;;;;;;;;5025297;28;20746;-77
2023/06/09 04:13:01;;;;;;;8.38;4.50;;;;;;;;;;5025147;28;20071;-78
2023/06/09 04:15:26;;;;;;;7.90;4.80;;;;;;;;;;5031350;28;20041;-77
2023/06/09 04:17:52;;;;;;;7.55;4.38;;;;;;;;;;5010860;28;20033;-80
2023/06/09 04:20:21;;;;;;;7.00;4.50;;;;;;;;;;5009067;28;20498;-84
2023/06/09 04:23:08;;;;;;;11.30;5.15;;;;;;;;;;5010421;28;20393;-84
2023/06/09 04:25:34;;;;;;;;;;;;;;;;;;4962958;28;20140;-84
2023/06/09 04:28:02;;;;;;;7.63;4.53;;;;;;;;;;4920205;28;19918;-84
2023/06/09 04:30:29;;;;;;;;;;;;;;;;;;4962329;28;20255;-84
2023/06/09 04:32:58;;;;;;;6.15;3.95;;;;;;;;;;4931324;28;19922;-85
2023/06/09 04:35:24;;;;;;;6.45;3.90;;;;;;;;;;4934279;28;20066;-84
2023/06/09 04:37:50;;;;;;;6.65;3.88;;;;;;;;;;4949208;28;20035;-85
2023/06/09 04:40:21;;;;;;;7.55;3.67;;;;;;;;;;4961814;28;20095;-85
2023/06/09 04:43:09;;;;;;;7.90;3.50;;;;;;;;;;4945780;28;20030;-84
2023/06/09 04:45:35;;;;;;;7.07;3.60;;;;;;;;;;4945367;28;20039;-84
2023/06/09 04:48:01;;;;;;;5.53;3.30;;;;;;;;;;4930471;28;20680;-85
2023/06/09 04:50:32;;;;;;;6.90;3.58;;;;;;;;;;4945683;28;20137;-85
2023/06/09 04:52:58;;;;;;;6.93;3.60;;;;;;;;;;4945873;28;20046;-85
2023/06/09 04:55:25;;;;;;;8.73;3.40;;;;;;;;;;4931418;28;20146;-85
2023/06/09 04:57:56;;;;;;;6.18;2.90;;;;;;;;;;4965433;28;20119;-85
2023/06/09 05:00:26;;;;;;;4.93;2.95;;;;;;;;;;4937560;28;20563;-85
2023/06/09 05:02:58;;;;;;;5.20;2.90;;;;;;;;;;5014518;28;20037;-83
2023/06/09 05:05:24;;;;;;;9.68;3.22;;;;;;;;;;5027002;28;20114;-83
2023/06/09 05:07:50;;;;;;;6.07;2.97;;;;;;;;;;5028662;28;20036;-84
2023/06/09 05:10:16;;;;;;;6.15;2.60;;;;;;;;;;5013220;28;20132;-85
2023/06/09 05:12:41;;;;;;;4.72;2.70;;;;;;;;;;5011546;28;20107;-83
2023/06/09 05:15:07;;;;;;;6.38;2.65;;;;;;;;;;5013912;28;20037;-84
2023/06/09 05:17:53;;;;;;;4.47;2.42;;;;;;;;;;5027973;28;20990;-83
2023/06/09 05:20:19;;;;;;;5.35;2.72;;;;;;;;;;4966943;28;20206;-84
2023/06/09 05:22:45;;;;;;;5.15;2.55;;;;;;;;;;4976242;28;20038;-83
2023/06/09 05:25:13;;;;;;;5.20;2.50;;;;;;;;;;4968013;28;20031;-82
2023/06/09 05:27:38;;;;;;;5.00;2.08;;;;;;;;;;4968544;28;20042;-84
2023/06/09 05:30:05;;;;;;;5.93;2.35;;;;;;;;;;4968486;28;20050;-86
2023/06/09 05:32:30;;;;;;;4.93;2.17;;;;;;;;;;4967529;28;20042;-87
2023/06/09 05:34:56;;;;;;;3.92;2.40;;;;;;;;;;4970144;28;20041;-86
2023/06/09 05:37:21;;;;;;;5.43;2.35;;;;;;;;;;4983820;28;20135;-85
2023/06/09 05:39:47;;;;;;;5.60;2.30;;;;;;;;;;4969198;28;20053;-86
2023/06/09 05:42:15;;;;;;;5.55;2.50;;;;;;;;;;4968356;28;20547;-86
2023/06/09 05:44:48;;;;;;;5.90;2.55;;;;;;;;;;4968590;28;20042;-86
2023/06/09 05:47:14;;;;;;;5.25;2.20;;;;;;;;;;4974169;28;20038;-86
2023/06/09 05:49:39;;;;;;;4.85;2.30;;;;;;;;;;4967886;28;20121;-87
2023/06/09 05:52:05;;;;;;;6.60;1.92;;;;;;;;;;4984447;28;20049;-86
2023/06/09 05:54:31;;;;;;;4.88;2.20;;;;;;;;;;4967691;28;20096;-85
2023/06/09 05:57:18;;;;;;;3.90;2.10;;;;;;;;;;4977286;28;20488;-86
2023/06/09 05:59:44;;;;;;;4.95;2.38;;;;;;;;;;5003820;28;20049;-86
2023/06/09 06:02:09;;;;;;;8.57;2.33;;;;;;;;;;4995737;28;20037;-86
2023/06/09 06:04:38;;;;;;;6.78;2.80;;;;;;;;;;4987854;28;20107;-86
2023/06/09 06:07:04;;;;;;;4.40;2.10;;;;;;;;;;4971176;28;20469;-81
2023/06/09 06:09:30;;;;;;;4.75;2.05;;;;;;;;;;4970128;28;20129;-86
2023/06/09 06:12:01;;;;;;;5.07;2.28;;;;;;;;;;4986136;28;20116;-85
2023/06/09 06:14:26;;;;;;;4.40;2.03;;;;;;;;;;4970644;28;20041;-86
2023/06/09 06:16:54;;;;;;;4.20;2.17;;;;;;;;;;4968869;28;20092;-86
2023/06/09 06:19:20;;;;;;;5.05;2.20;;;;;;;;;;4987660;28;20037;-86
2023/06/09 06:21:46;;;;;;;5.72;2.08;;;;;;;;;;4975948;28;20038;-85
2023/06/09 06:24:11;;;;;;;4.80;2.28;;;;;;;;;;4970104;28;20481;-86
2023/06/09 06:26:36;;;;;;;4.88;2.05;;;;;;;;;;5003182;28;20057;-81
2023/06/09 06:29:02;;;;;;;6.50;2.20;;;;;;;;;;5002678;28;20096;-81
2023/06/09 06:31:29;;;;;;;3.90;2.30;;;;;;;;;;4986083;28;20116;-81
2023/06/09 06:33:55;;;;;;;4.07;2.03;;;;;;;;;;4987027;28;20509;-82
2023/06/09 06:36:21;;;;;;;4.18;1.92;;;;;;;;;;4987454;28;20099;-84
2023/06/09 06:38:47;;;;;;;5.03;1.83;;;;;;;;;;5027294;28;20804;-84
2023/06/09 06:41:13;;;;;;;4.18;1.98;;;;;;;;;;5010441;28;20484;-85
2023/06/09 06:43:38;;;;;;;7.45;2.20;;;;;;;;;;5028580;28;20029;-86
2023/06/09 06:46:05;;;;;;;5.22;2.17;;;;;;;;;;5015770;28;20037;-86
2023/06/09 06:48:30;;;;;;;3.50;2.08;;;;;;;;;;5010940;28;20036;-86
2023/06/09 06:50:56;;;;;;;3.38;1.80;;;;;;;;;;5003986;28;20417;-86
2023/06/09 06:53:24;;;;;;;6.03;2.15;;;;;;;;;;5029085;28;20041;-86
2023/06/09 06:55:49;;;;;;;7.97;2.53;;;;;;;;;;5010581;28;20155;-86
2023/06/09 06:58:15;;;;;;;5.13;2.28;;;;;;;;;;5028862;28;20443;-86
2023/06/09 07:00:41;;;;;;;8.50;2.60;;;;;;;;;;5027004;28;20456;-86
2023/06/09 07:03:09;;;;;;;4.45;2.50;;;;;;;;;;5006582;28;20151;-86
2023/06/09 07:05:35;;;;;;;6.10;2.63;;;;;;;;;;5028022;28;20723;-85
2023/06/09 07:08:00;;;;;;;5.82;2.90;;;;;;;;;;5028613;28;20032;-86
2023/06/09 07:10:26;;;;;;;4.45;2.22;;;;;;;;;;5017854;28;20037;-86
2023/06/09 07:12:51;;;;;;;5.68;2.53;;;;;;;;;;5044867;28;20029;-85
2023/06/09 07:15:17;;;;;;;5.28;2.60;;;;;;;;;;5043835;28;20060;-86
2023/06/09 07:17:43;;;;;;;5.97;2.65;;;;;;;;;;5011778;28;20059;-85
2023/06/09 07:20:12;;;;;;;6.38;2.80;;;;;;;;;;5028804;28;20551;-86
2023/06/09 07:22:41;;;;;;;6.85;2.60;;;;;;;;;;5008772;28;20033;-84
2023/06/09 07:25:08;;;;;;;6.25;2.80;;;;;;;;;;5025488;28;20028;-87
2023/06/09 07:27:33;;;;;;;4.55;2.40;;;;;;;;;;5009898;28;20039;-87
2023/06/09 07:29:59;;;;;;;5.72;2.90;;;;;;;;;;5042586;28;20037;-85
2023/06/09 07:32:24;;;;;;;6.53;2.38;;;;;;;;;;5010108;28;20143;-88
2023/06/09 07:34:50;;;;;;;4.72;2.47;;;;;;;;;;5027979;28;20040;-87
2023/06/09 07:37:15;;;;;;;5.60;2.40;;;;;;;;;;4996456;28;20040;-86
2023/06/09 07:39:41;;;;;;;5.15;2.42;;;;;;;;;;5043735;28;20033;-85
2023/06/09 07:42:06;;;;;;;5.20;2.40;;;;;;;;;;5042956;28;20029;-84
2023/06/09 07:44:32;;;;;;;4.32;2.40;;;;;;;;;;5026487;28;20425;-84
2023/06/09 07:46:57;;;;;;;3.97;2.42;;;;;;;;;;5025909;28;20060;-84
2023/06/09 07:49:23;;;;;;;7.18;2.60;;;;;;;;;;5026643;28;20048;-85
2023/06/09 07:51:49;;;;;;;5.18;2.33;;;;;;;;;;5026419;28;20393;-85
2023/06/09 07:54:15;;;;;;;4.73;2.33;;;;;;;;;;4998681;28;20136;-85
2023/06/09 07:56:41;;;;;;;5.18;2.47;;;;;;;;;;5009390;28;20758;-85
2023/06/09 07:59:07;;;;;;;4.28;2.47;;;;;;;;;;5043413;28;20037;-85
2023/06/09 08:01:32;;;;;;;4.40;2.30;;;;;;;;;;5041665;28;20496;-85
2023/06/09 08:04:01;;;;;;;6.32;2.20;;;;;;;;;;5026167;28;20033;-84
2023/06/09 08:06:28;;;;;;;5.10;2.40;;;;;;;;;;5025614;28;20387;-85
2023/06/09 08:08:54;;;;;;;5.88;2.58;;;;;;;;;;5014163;28;20033;-85
2023/06/09 08:11:19;;;;;;;5.97;2.55;;;;;;;;;;5012746;28;20081;-85
2023/06/09 08:13:44;;;;;;;4.68;2.40;;;;;;;;;;5025416;28;20120;-85
2023/06/09 08:16:10;;;;;;;5.43;2.40;;;;;;;;;;5008262;28;20068;-84
2023/06/09 08:18:41;;;;;;;7.45;2.72;;;;;;;;;;5026206;28;20037;-85
2023/06/09 08:21:07;;;;;;;8.25;2.67;;;;;;;;;;4985656;28;20102;-84
2023/06/09 08:23:32;;;;;;;4.38;1.90;;;;;;;;;;5003618;28;20480;-85
2023/06/09 08:25:58;;;;;;;3.67;2.10;;;;;;;;;;4996331;28;20033;-84
2023/06/09 08:28:23;;;;;;;6.75;2.50;;;;;;;;;;5016319;28;20038;-85
2023/06/09 08:30:49;;;;;;;3.85;1.92;;;;;;;;;;5000872;28;20045;-85
2023/06/09 08:33:15;;;;;;;5.30;2.00;;;;;;;;;;5029907;28;20037;-85
2023/06/09 08:35:41;;;;;;;5.40;2.15;;;;;;;;;;5028469;28;20563;-85
2023/06/09 08:38:24;;;;;;;4.32;2.35;;;;;;;;;;5029910;28;20098;-84
2023/06/09 08:40:51;;;;;;;6.43;2.20;;;;;;;;;;5005885;28;20033;-85
2023/06/09 08:43:16;;;;;;;4.57;2.10;;;;;;;;;;5029140;28;20044;-81
2023/06/09 08:45:46;;;;;;;4.95;2.03;;;;;;;;;;5028470;28;20475;-83
2023/06/09 08:48:17;;;;;;;4.80;2.22;;;;;;;;;;5011243;28;20029;-84
2023/06/09 08:50:42;;;;;;;6.80;2.20;;;;;;;;;;5013804;28;20112;-83
2023/06/09 08:53:09;;;;;;;4.03;2.10;;;;;;;;;;4995667;28;20645;-83
2023/06/09 08:55:36;;;;;;;6.32;2.30;;;;;;;;;;5028535;28;20508;-84
2023/06/09 08:58:02;;;;;;;4.20;1.95;;;;;;;;;;5012755;28;20116;-85
2023/06/09 09:00:27;;;;;;;5.33;2.53;;;;;;;;;;5028359;28;20045;-84
2023/06/09 09:02:53;;;;;;;5.93;2.30;;;;;;;;;;5017449;28;20699;-84
2023/06/09 09:05:19;;;;;;;7.10;2.25;;;;;;;;;;5028065;28;20021;-84
2023/06/09 09:07:45;;;;;;;4.63;2.20;;;;;;;;;;5029922;28;20037;-84
2023/06/09 09:10:15;;;;;;;4.20;2.25;;;;;;;;;;5018963;28;20112;-84
2023/06/09 09:12:52;;;;;;;6.00;2.60;;;;;;;;;;5029047;28;20549;-84
2023/06/09 09:15:18;;;;;;;7.00;2.70;;;;;;;;;;5029975;28;20045;-88
2023/06/09 09:17:47;;;;;;;3.80;1.90;;;;;;;;;;5012583;28;20044;-87
2023/06/09 09:20:14;;;;;;;4.25;2.05;;;;;;;;;;5019385;28;20724;-87
2023/06/09 09:22:52;;;;;;;5.63;2.70;;;;;;;;;;5029299;28;20077;-86
2023/06/09 09:25:25;;;;;;;4.22;2.28;;;;;;;;;;5015431;28;20036;-88
2023/06/09 09:28:17;;;;;;;5.22;2.33;;;;;;;;;;5010821;28;20106;-87
2023/06/09 09:31:01;;;;;;;5.55;2.47;;;;;;;;;;5026817;28;20515;-87
2023/06/09 09:33:27;;;;;;;4.60;2.30;;;;;;;;;;5044769;28;20040;-85
2023/06/09 09:35:59;;;;;;;4.85;2.15;;;;;;;;;;5026521;28;20086;-88
2023/06/09 09:38:29;;;;;;;5.95;2.00;;;;;;;;;;5012469;28;20132;-88
2023/06/09 09:40:59;;;;;;;5.70;2.20;;;;;;;;;;5027008;28;20112;-88
2023/06/09 09:43:26;;;;;;;5.78;2.53;;;;;;;;;;5028997;28;20041;-88
2023/06/09 09:45:53;;;;;;;6.05;2.50;;;;;;;;;;5002365;28;20037;-88
2023/06/09 09:48:22;;;;;;;6.68;2.33;;;;;;;;;;5029049;28;20037;-88
2023/06/09 09:50:48;;;;;;;5.78;2.25;;;;;;;;;;5017729;28;20076;-88
2023/06/09 09:53:14;;;;;;;11.73;2.20;;;;;;;;;;5030011;28;20467;-89
2023/06/09 09:55:45;;;;;;;4.50;1.80;;;;;;;;;;5045254;28;20132;-88
2023/06/09 09:58:10;;;;;;;4.82;2.15;;;;;;;;;;5028062;28;20055;-87
2023/06/09 10:00:37;;;;;;;6.07;2.67;;;;;;;;;;5019327;28;20029;-88
2023/06/09 10:03:18;;;;;;;;;;;;;;;;;;5030072;28;20053;-88
2023/06/09 10:05:48;;;;;;;6.22;2.38;;;;;;;;;;5012367;28;19927;-89
2023/06/09 10:08:18;;;;;;;5.22;2.30;;;;;;;;;;5029574;28;20570;-91
2023/06/09 10:10:52;;;;;;;5.22;1.92;;;;;;;;;;5009136;28;20033;-80
2023/06/09 10:13:19;;;;;;;5.13;2.00;;;;;;;;;;5027967;28;20037;-80
2023/06/09 10:15:44;;;;;;;3.78;2.08;;;;;;;;;;5026664;28;20496;-80
2023/06/09 10:18:12;;;;;;;3.77;2.03;;;;;;;;;;5027210;28;20039;-80
2023/06/09 10:20:38;;;;;;;5.13;2.05;;;;;;;;;;5020534;28;20091;-80
2023/06/09 10:23:04;;;;;;;4.00;1.63;;;;;;;;;;5044767;28;20037;-81
2023/06/09 10:25:30;;;;;;;4.10;1.90;;;;;;;;;;5008979;28;22194;-80
2023/06/09 10:27:59;;;;;;;4.78;1.92;;;;;;;;;;5026802;28;20380;-80
2023/06/09 10:30:28;;;;;;;3.95;1.70;;;;;;;;;;5027012;28;20223;-80
2023/06/09 10:32:57;;;;;;;3.55;1.77;;;;;;;;;;5010676;28;20040;-79
2023/06/09 10:35:26;;;;;;;4.50;2.10;;;;;;;;;;5025883;28;20452;-80
2023/06/09 10:37:52;;;;;;;3.50;1.88;;;;;;;;;;5044057;28;20471;-80
2023/06/09 10:40:29;;;;;;;4.00;1.92;;;;;;;;;;5026248;28;20571;-79
2023/06/09 10:43:20;;;;;;;2.88;1.63;;;;;;;;;;5010389;28;20033;-80
2023/06/09 10:45:56;;;;;;;5.25;1.98;;;;;;;;;;5041736;28;20120;-80
2023/06/09 10:48:43;;;;;;;4.45;1.80;;;;;;;;;;5043280;28;20488;-81
2023/06/09 10:51:24;;;;;;;4.88;1.92;;;;;;;;;;5017985;28;20040;-80
2023/06/09 10:54:09;;;;;;;3.55;1.70;;;;;;;;;;5025158;28;20057;-79
2023/06/09 10:56:36;;;;;;;3.30;1.70;;;;;;;;;;5035325;28;20033;-79
2023/06/09 10:59:03;;;;;;;3.40;1.80;;;;;;;;;;5043188;28;20037;-79
2023/06/09 11:01:29;;;;;;;3.28;1.70;;;;;;;;;;4999719;28;20033;-79
2023/06/09 11:03:54;;;;;;;3.67;1.67;;;;;;;;;;5021711;28;20037;-80
2023/06/09 11:06:20;;;;;;;3.87;1.83;;;;;;;;;;5009904;28;20033;-79
2023/06/09 11:09:08;;;;;;;5.15;2.88;;;;;;;;;;5026193;28;20283;-79
2023/06/09 11:11:51;;;;;;;3.10;1.58;;;;;;;;;;5017764;28;20128;-79
2023/06/09 11:14:44;;;;;;;3.15;1.50;;;;;;;;;;5023105;28;20185;-80
2023/06/09 11:17:17;;;;;;;4.07;1.70;;;;;;;;;;5013599;28;20123;-80
2023/06/09 11:19:43;;;;;;;2.78;1.58;;;;;;;;;;5005579;28;20476;-79
2023/06/09 11:22:09;;;;;;;4.07;1.67;;;;;;;;;;5025125;28;20099;-80
2023/06/09 11:24:47;;;;;;;;;;;;;;;;;;4997695;28;20112;-79
2023/06/09 11:27:23;;;;;;;3.00;1.70;;;;;;;;;;4989128;28;19913;-79
2023/06/09 11:30:08;;;;;;;2.90;1.52;;;;;;;;;;4980844;28;20045;-79
2023/06/09 11:33:04;;;;;;;2.67;1.50;;;;;;;;;;5033032;28;20377;-80
2023/06/09 11:35:39;;;;;;;4.18;1.58;;;;;;;;;;5012159;28;20488;-80
2023/06/09 11:38:09;;;;;;;2.65;1.40;;;;;;;;;;5042786;28;20587;-78
2023/06/09 11:40:43;;;;;;;2.90;1.60;;;;;;;;;;5025669;28;20043;-81
2023/06/09 11:43:09;;;;;;;3.00;1.58;;;;;;;;;;5009647;28;20439;-80
2023/06/09 11:45:36;;;;;;;3.40;1.48;;;;;;;;;;5024559;28;20040;-80
2023/06/09 11:48:04;;;;;;;3.15;1.55;;;;;;;;;;5032296;28;20459;-79
2023/06/09 11:50:44;;;;;;;5.25;1.90;;;;;;;;;;4996417;28;20102;-80
2023/06/09 11:53:11;;;;;;;5.18;1.70;;;;;;;;;;5011393;28;20056;-79
2023/06/09 11:55:36;;;;;;;5.15;1.70;;;;;;;;;;5023423;28;20037;-79
2023/06/09 11:58:03;;;;;;;4.50;1.70;;;;;;;;;;5025292;28;20036;-78
2023/06/09 12:00:30;;;;;;;4.10;2.13;;;;;;;;;;5012775;28;20514;-79
2023/06/09 12:02:58;;;;;;;3.90;2.00;;;;;;;;;;5025158;28;20033;-78
2023/06/09 12:05:26;;;;;;;3.35;1.73;;;;;;;;;;5006361;28;20051;-78
2023/06/09 12:07:53;;;;;;;5.20;2.22;;;;;;;;;;5021612;28;20091;-78
2023/06/09 12:10:22;;;;;;;3.65;1.83;;;;;;;;;;5024364;28;20064;-78
2023/06/09 12:12:49;;;;;;;3.75;2.10;;;;;;;;;;5025696;28;20033;-78
2023/06/09 12:15:16;;;;;;;3.67;2.13;;;;;;;;;;5015153;28;20032;-78
2023/06/09 12:17:42;;;;;;;4.78;2.20;;;;;;;;;;5024349;28;20056;-79
2023/06/09 12:20:26;;;;;;;4.50;2.20;;;;;;;;;;5025973;28;20906;-79
2023/06/09 12:22:53;;;;;;;4.25;2.30;;;;;;;;;;5002133;28;20095;-79
2023/06/09 12:25:28;;;;;;;4.43;2.35;;;;;;;;;;5024562;28;20678;-79
2023/06/09 12:27:55;;;;;;;4.28;2.10;;;;;;;;;;5025281;28;20025;-79
2023/06/09 12:30:40;;;;;;;3.95;2.20;;;;;;;;;;5031037;28;20052;-78
2023/06/09 12:33:09;;;;;;;3.75;2.10;;;;;;;;;;4996521;28;20032;-79
2023/06/09 12:35:38;;;;;;;5.93;2.10;;;;;;;;;;5040808;28;20463;-79
2023/06/09 12:38:16;;;;;;;4.00;2.50;;;;;;;;;;5025095;28;20041;-78
2023/06/09 12:40:42;;;;;;;4.57;2.20;;;;;;;;;;5015874;28;20484;-79
2023/06/09 12:43:07;;;;;;;4.77;2.40;;;;;;;;;;5025917;28;20037;-78
2023/06/09 12:45:33;;;;;;;5.18;2.40;;;;;;;;;;4989390;28;20408;-78
2023/06/09 12:48:04;;;;;;;4.03;2.38;;;;;;;;;;5007748;28;20064;-79
2023/06/09 12:50:30;;;;;;;5.03;2.53;;;;;;;;;;5023888;28;20046;-78
2023/06/09 12:52:55;;;;;;;5.63;2.50;;;;;;;;;;5026453;28;20391;-79
2023/06/09 12:55:21;;;;;;;4.72;2.60;;;;;;;;;;4990412;28;20137;-78
2023/06/09 12:57:46;;;;;;;3.95;2.25;;;;;;;;;;4994748;28;20452;-79
2023/06/09 13:00:12;;;;;;;4.47;2.55;;;;;;;;;;5001392;28;20045;-79
2023/06/09 13:02:38;;;;;;;5.20;2.45;;;;;;;;;;4979704;28;20034;-79
2023/06/09 13:05:03;;;;;;;4.40;2.58;;;;;;;;;;4984669;28;20105;-79
2023/06/09 13:07:29;;;;;;;4.07;2.30;;;;;;;;;;5001038;28;20038;-80
2023/06/09 13:09:54;;;;;;;6.45;2.63;;;;;;;;;;5005882;28;20037;-79
2023/06/09 13:12:20;;;;;;;4.47;2.83;;;;;;;;;;5018488;28;20418;-79
2023/06/09 13:14:45;;;;;;;4.38;2.50;;;;;;;;;;5022725;28;20081;-79
2023/06/09 13:17:10;;;;;;;4.57;2.60;;;;;;;;;;4998780;28;20047;-79
2023/06/09 13:19:36;;;;;;;4.32;2.53;;;;;;;;;;5042634;28;20050;-79
2023/06/09 13:22:01;;;;;;;4.88;2.50;;;;;;;;;;5007398;28;20128;-79
2023/06/09 13:24:26;;;;;;;3.28;2.28;;;;;;;;;;5025285;28;20044;-79
2023/06/09 13:26:52;;;;;;;4.30;2.20;;;;;;;;;;5024063;28;20044;-79
2023/06/09 13:29:17;;;;;;;5.22;2.60;;;;;;;;;;5008427;28;20041;-79
2023/06/09 13:31:43;;;;;;;5.20;2.10;;;;;;;;;;5041230;28;20052;-79
2023/06/09 13:34:08;;;;;;;7.03;2.30;;;;;;;;;;5025474;28;20045;-80
2023/06/09 13:36:34;;;;;;;4.67;2.27;;;;;;;;;;5005817;28;20405;-80
2023/06/09 13:38:59;;;;;;;4.03;2.20;;;;;;;;;;5024321;28;20107;-78
2023/06/09 13:41:26;;;;;;;4.50;1.97;;;;;;;;;;5024223;28;20200;-80
2023/06/09 13:43:51;;;;;;;3.60;1.90;;;;;;;;;;5024278;28;20056;-78
2023/06/09 13:46:19;;;;;;;4.40;2.23;;;;;;;;;;5024333;28;20034;-78
2023/06/09 13:48:45;;;;;;;3.88;2.08;;;;;;;;;;5024691;28;20045;-80
2023/06/09 13:51:10;;;;;;;3.40;2.07;;;;;;;;;;5041396;28;20029;-79
2023/06/09 13:53:36;;;;;;;4.37;2.13;;;;;;;;;;5029005;28;20033;-78
2023/06/09 13:56:02;;;;;;;4.03;2.20;;;;;;;;;;5018721;28;20044;-78
2023/06/09 13:58:30;;;;;;;5.47;2.50;;;;;;;;;;5024821;28;20053;-77
2023/06/09 14:00:56;;;;;;;4.97;2.22;;;;;;;;;;5015463;28;20059;-77
2023/06/09 14:03:22;;;;;;;3.57;2.27;;;;;;;;;;5034764;28;20037;-78
2023/06/09 14:05:47;;;;;;;4.70;2.38;;;;;;;;;;5039740;28;20493;-79
2023/06/09 14:08:12;;;;;;;4.22;2.75;;;;;;;;;;5024349;28;20044;-79
2023/06/09 14:10:53;;;;;;;7.28;2.67;;;;;;;;;;5024075;28;20175;-79
2023/06/09 14:13:19;;;;;;;4.07;2.40;;;;;;;;;;5028153;28;20051;-78
2023/06/09 14:15:45;;;;;;;5.63;2.50;;;;;;;;;;5044597;28;20033;-78
2023/06/09 14:18:10;;;;;;;4.13;2.25;;;;;;;;;;5015512;28;20436;-78
2023/06/09 14:20:36;;;;;;;4.10;2.33;;;;;;;;;;5027655;28;20036;-78
2023/06/09 14:23:04;;;;;;;3.72;2.28;;;;;;;;;;5027509;28;20033;-78
2023/06/09 14:25:30;;;;;;;3.92;2.53;;;;;;;;;;4999517;28;20036;-78
2023/06/09 14:27:56;;;;;;;4.70;2.25;;;;;;;;;;5027093;28;20033;-79
2023/06/09 14:30:22;;;;;;;4.03;2.50;;;;;;;;;;5017351;28;20092;-77
2023/06/09 14:32:49;;;;;;;3.77;2.33;;;;;;;;;;5010332;28;20045;-78
2023/06/09 14:35:20;;;;;;;;;;;;;;;;;;5025880;28;20284;-79
2023/06/09 14:37:47;;;;;;;4.57;2.92;;;;;;;;;;5013424;28;19919;-79
2023/06/09 14:40:13;;;;;;;3.80;2.72;;;;;;;;;;5023095;28;20037;-81
2023/06/09 14:42:38;;;;;;;5.80;2.58;;;;;;;;;;5024251;28;20354;-82
2023/06/09 14:45:04;;;;;;;4.50;2.70;;;;;;;;;;5025302;28;20449;-80
2023/06/09 14:47:30;;;;;;;4.50;2.60;;;;;;;;;;5002274;28;20064;-80
2023/06/09 14:49:55;;;;;;;3.92;2.30;;;;;;;;;;5005236;28;20041;-78
2023/06/09 14:52:21;;;;;;;4.88;2.85;;;;;;;;;;5008574;28;20120;-78